Time;durP1;ratioP1;P1;durP2;ratioP2;P2;SDS_P1;SDS_P2;PMS_P1;PMS_P2;Temp;Humidity;BMP_temperature;BMP_pressure;BME280_temperature;BME280_humidity;BME280_pressure;Samples;Min_cycle;Max_cycle;Signal;HPM_P1;HPM_P2
2023/08/12 00:01:49;;;;;;;12.37;4.70;;;17.10;37.60;;;;;;5061331;28;46349;-69
2023/08/12 00:04:16;;;;;;;8.40;5.33;;;17.00;37.70;;;;;;5057454;28;46743;-68
2023/08/12 00:06:42;;;;;;;7.83;5.10;;;17.00;37.80;;;;;;5050366;28;45902;-68
2023/08/12 00:09:08;;;;;;;7.83;5.03;;;17.00;38.00;;;;;;5058904;28;46421;-66
2023/08/12 00:11:35;;;;;;;11.87;5.63;;;16.90;38.10;;;;;;5059038;28;46410;-67
2023/08/12 00:14:00;;;;;;;15.20;4.77;;;16.90;38.30;;;;;;5056626;28;46616;-68
2023/08/12 00:16:26;;;;;;;7.53;4.50;;;16.90;38.60;;;;;;5066331;28;46427;-67
2023/08/12 00:18:52;;;;;;;18.23;5.40;;;16.90;38.80;;;;;;5054342;28;45926;-67
2023/08/12 00:21:17;;;;;;;8.63;4.87;;;16.90;38.90;;;;;;5054792;28;46793;-67
2023/08/12 00:23:44;;;;;;;10.67;4.67;;;16.90;37.70;;;;;;5060746;28;46442;-66
2023/08/12 00:26:10;;;;;;;14.93;5.07;;;16.90;38.80;;;;;;5049104;28;46652;-67
2023/08/12 00:28:36;;;;;;;7.87;4.50;;;16.90;38.90;;;;;;5056039;28;46785;-67
2023/08/12 00:31:02;;;;;;;10.70;4.90;;;16.90;38.90;;;;;;5055918;28;46392;-67
2023/08/12 00:33:28;;;;;;;7.80;4.07;;;16.90;38.20;;;;;;5050636;28;47283;-66
2023/08/12 00:35:54;;;;;;;9.27;4.23;;;16.80;39.00;;;;;;5056324;28;46709;-67
2023/08/12 00:38:19;;;;;;;6.20;4.37;;;16.80;39.30;;;;;;5055240;28;46789;-68
2023/08/12 00:40:46;;;;;;;14.00;4.53;;;16.80;39.80;;;;;;5057165;28;46488;-67
2023/08/12 00:43:12;;;;;;;8.80;4.60;;;16.70;39.80;;;;;;5055365;28;46498;-69
2023/08/12 00:45:38;;;;;;;12.23;4.40;;;16.60;40.00;;;;;;5057041;28;46227;-68
2023/08/12 00:48:04;;;;;;;6.10;4.17;;;16.60;40.30;;;;;;5060288;28;46468;-68
2023/08/12 00:50:30;;;;;;;14.47;4.57;;;16.50;40.30;;;;;;5050504;28;46398;-67
2023/08/12 00:52:57;;;;;;;10.20;4.47;;;16.50;40.40;;;;;;5054707;28;47045;-68
2023/08/12 00:55:23;;;;;;;9.73;4.13;;;16.50;40.30;;;;;;5050903;28;46465;-68
2023/08/12 00:57:49;;;;;;;8.13;4.33;;;16.50;40.20;;;;;;5060955;28;46466;-67
2023/08/12 01:00:16;;;;;;;9.37;5.10;;;16.50;40.30;;;;;;5055984;28;45947;-66
2023/08/12 01:02:47;;;;;;;14.83;4.90;;;16.40;40.30;;;;;;5054077;28;47295;-67
2023/08/12 01:05:14;;;;;;;9.40;4.93;;;16.40;40.40;;;;;;5062540;28;46305;-67
2023/08/12 01:07:39;;;;;;;9.50;4.40;;;16.40;40.50;;;;;;5054977;28;46415;-67
2023/08/12 01:10:05;;;;;;;12.63;4.20;;;16.40;40.80;;;;;;5053866;28;46510;-67
2023/08/12 01:12:41;;;;;;;10.33;4.40;;;16.40;41.00;;;;;;5065991;28;46727;-67
2023/08/12 01:15:10;;;;;;;10.13;5.03;;;16.40;41.00;;;;;;5050052;28;46491;-68
2023/08/12 01:17:41;;;;;;;11.43;5.57;;;16.40;40.90;;;;;;5053277;28;46404;-65
2023/08/12 01:20:08;;;;;;;11.13;5.40;;;16.40;40.70;;;;;;5055384;28;46481;-66
2023/08/12 01:22:40;;;;;;;17.60;6.43;;;16.40;40.90;;;;;;5056571;28;46332;-66
2023/08/12 01:25:07;;;;;;;12.80;6.30;;;16.50;41.10;;;;;;5054130;28;46411;-66
2023/08/12 01:27:36;;;;;;;12.33;7.50;;;16.50;41.10;;;;;;5058976;28;46700;-68
2023/08/12 01:30:05;;;;;;;11.90;6.80;;;16.50;41.10;;;;;;5050491;28;45975;-67
2023/08/12 01:32:37;;;;;;;11.77;8.80;;;16.60;41.40;;;;;;5059256;28;47361;-67
2023/08/12 01:35:20;;;;;;;14.90;9.17;;;16.60;41.60;;;;;;5052119;28;46479;-68
2023/08/12 01:37:49;;;;;;;14.37;8.03;;;16.60;42.20;;;;;;5052107;28;46339;-69
2023/08/12 01:40:16;;;;;;;12.57;7.73;;;16.60;42.10;;;;;;5050940;28;46434;-69
2023/08/12 01:42:42;;;;;;;14.10;5.90;;;16.60;43.30;;;;;;5050666;28;48626;-68
2023/08/12 01:45:08;;;;;;;8.53;6.30;;;16.60;42.50;;;;;;5052268;28;46458;-67
2023/08/12 01:47:34;;;;;;;11.73;6.10;;;16.50;42.80;;;;;;5056319;28;46752;-67
2023/08/12 01:49:59;;;;;;;7.00;5.23;;;16.40;42.90;;;;;;5050635;28;46305;-69
2023/08/12 01:52:25;;;;;;;11.87;5.63;;;16.30;43.10;;;;;;5053808;28;47263;-66
2023/08/12 01:54:51;;;;;;;16.40;5.60;;;16.20;43.30;;;;;;5052318;28;46202;-69
2023/08/12 01:57:17;;;;;;;10.00;5.10;;;16.10;44.00;;;;;;5060694;28;46464;-68
2023/08/12 01:59:44;;;;;;;10.47;5.60;;;16.10;44.00;;;;;;5056897;28;46336;-69
2023/08/12 02:02:09;;;;;;;10.67;5.23;;;15.90;43.80;;;;;;5052148;28;46594;-67
2023/08/12 02:04:37;;;;;;;10.90;5.77;;;15.90;43.80;;;;;;5062373;28;46734;-69
2023/08/12 02:07:03;;;;;;;15.50;6.77;;;15.90;43.90;;;;;;5052239;28;46383;-67
2023/08/12 02:09:29;;;;;;;15.57;7.20;;;16.00;44.00;;;;;;5054971;28;45812;-69
2023/08/12 02:11:54;;;;;;;13.43;6.47;;;16.00;43.90;;;;;;5060502;28;46398;-67
2023/08/12 02:14:20;;;;;;;7.50;5.10;;;16.00;43.90;;;;;;5060691;28;46368;-67
2023/08/12 02:16:46;;;;;;;14.20;5.90;;;15.90;43.80;;;;;;5055600;28;45792;-69
2023/08/12 02:19:11;;;;;;;9.40;6.03;;;15.80;43.80;;;;;;5054500;28;45942;-69
2023/08/12 02:21:37;;;;;;;15.13;5.93;;;15.80;43.80;;;;;;5049391;28;46377;-68
2023/08/12 02:24:02;;;;;;;8.40;5.50;;;15.70;43.70;;;;;;5056599;28;46557;-67
2023/08/12 02:26:28;;;;;;;8.37;5.00;;;15.60;44.20;;;;;;5060335;28;46487;-67
2023/08/12 02:28:54;;;;;;;11.83;6.50;;;15.50;44.40;;;;;;5056633;28;46404;-68
2023/08/12 02:31:19;;;;;;;13.60;5.63;;;15.50;44.70;;;;;;5057418;28;46398;-67
2023/08/12 02:33:45;;;;;;;10.93;6.77;;;15.50;43.70;;;;;;5049536;28;46396;-66
2023/08/12 02:36:10;;;;;;;10.70;6.33;;;15.50;44.70;;;;;;5049469;28;46483;-68
2023/08/12 02:38:36;;;;;;;15.17;6.60;;;15.50;44.50;;;;;;5050528;28;46398;-67
2023/08/12 02:41:02;;;;;;;11.23;6.50;;;15.50;44.50;;;;;;5051113;28;46247;-67
2023/08/12 02:43:27;;;;;;;12.20;6.60;;;15.40;44.50;;;;;;5052399;28;46436;-67
2023/08/12 02:45:53;;;;;;;12.30;6.70;;;15.40;44.70;;;;;;5052135;28;45830;-67
2023/08/12 02:48:18;;;;;;;11.43;6.17;;;15.40;44.60;;;;;;5055553;28;46510;-69
2023/08/12 02:50:44;;;;;;;10.63;5.87;;;15.40;44.50;;;;;;5056766;28;46459;-66
2023/08/12 02:53:10;;;;;;;12.87;6.20;;;15.40;45.70;;;;;;5057991;28;46478;-69
2023/08/12 02:55:37;;;;;;;13.20;6.20;;;15.40;44.40;;;;;;5057349;28;46426;-67
2023/08/12 02:58:03;;;;;;;7.10;5.33;;;15.40;44.50;;;;;;5057490;28;46473;-67
2023/08/12 03:00:28;;;;;;;11.40;5.77;;;15.40;44.40;;;;;;5056912;28;47067;-68
2023/08/12 03:02:54;;;;;;;10.60;6.27;;;15.40;44.50;;;;;;5054633;28;46547;-68
2023/08/12 03:05:20;;;;;;;8.60;6.73;;;15.50;44.50;;;;;;5056307;28;46436;-67
2023/08/12 03:07:46;;;;;;;9.10;6.27;;;15.50;44.40;;;;;;5057037;28;46607;-67
2023/08/12 03:10:12;;;;;;;11.03;5.60;;;15.50;44.50;;;;;;5055245;28;46449;-67
2023/08/12 03:12:37;;;;;;;9.97;5.80;;;15.50;44.70;;;;;;5057563;28;46509;-69
2023/08/12 03:15:05;;;;;;;10.97;6.27;;;15.50;44.90;;;;;;5053632;28;46448;-67
2023/08/12 03:17:30;;;;;;;14.47;6.40;;;15.50;45.10;;;;;;5055468;28;46562;-68
2023/08/12 03:19:59;;;;;;;22.23;6.10;;;15.40;45.20;;;;;;5057768;28;46426;-67
2023/08/12 03:22:28;;;;;;;7.27;5.20;;;15.40;45.20;;;;;;5056163;28;46360;-67
2023/08/12 03:24:53;;;;;;;12.23;5.60;;;15.40;45.30;;;;;;5057006;28;46433;-67
2023/08/12 03:27:19;;;;;;;11.00;5.60;;;15.30;45.50;;;;;;5059226;28;46611;-68
2023/08/12 03:29:45;;;;;;;10.50;6.07;;;15.20;45.70;;;;;;5053901;28;46343;-69
2023/08/12 03:32:10;;;;;;;14.80;6.00;;;15.20;46.00;;;;;;5055045;28;46264;-69
2023/08/12 03:34:36;;;;;;;9.83;6.37;;;15.10;46.10;;;;;;5056347;28;46862;-69
2023/08/12 03:37:01;;;;;;;16.80;6.90;;;15.10;46.20;;;;;;5053517;28;46293;-70
2023/08/12 03:39:27;;;;;;;11.30;5.40;;;15.00;46.10;;;;;;5052142;28;45985;-67
2023/08/12 03:41:53;;;;;;;13.23;5.77;;;15.00;46.30;;;;;;5051021;28;46627;-67
2023/08/12 03:44:19;;;;;;;9.33;5.67;;;14.90;46.30;;;;;;5052073;28;46794;-67
2023/08/12 03:46:44;;;;;;;8.60;5.57;;;14.90;46.60;;;;;;5052170;28;46673;-68
2023/08/12 03:49:10;;;;;;;8.90;6.20;;;14.80;46.80;;;;;;5051674;28;46487;-67
2023/08/12 03:51:35;;;;;;;10.83;6.90;;;14.80;46.90;;;;;;5052309;28;46058;-68
2023/08/12 03:54:01;;;;;;;9.83;6.20;;;14.80;46.90;;;;;;5051445;28;46413;-68
2023/08/12 03:56:27;;;;;;;12.00;6.60;;;14.80;46.90;;;;;;5053072;28;46528;-68
2023/08/12 03:58:52;;;;;;;7.50;5.60;;;14.90;46.80;;;;;;5054685;28;47304;-68
2023/08/12 04:01:18;;;;;;;8.73;6.33;;;14.90;46.60;;;;;;5055350;28;46501;-67
2023/08/12 04:03:43;;;;;;;10.47;7.13;;;15.00;46.40;;;;;;5057788;28;46486;-67
2023/08/12 04:06:09;;;;;;;7.93;5.33;;;15.00;46.30;;;;;;5055863;28;46167;-70
2023/08/12 04:08:35;;;;;;;9.53;6.00;;;15.00;46.40;;;;;;5056274;28;46685;-67
2023/08/12 04:11:00;;;;;;;11.13;6.87;;;15.00;46.30;;;;;;5054817;28;46551;-67
2023/08/12 04:13:26;;;;;;;10.43;6.20;;;15.10;46.30;;;;;;5056900;28;46518;-68
2023/08/12 04:15:55;;;;;;;11.50;7.40;;;15.20;46.10;;;;;;5057935;28;46506;-66
2023/08/12 04:18:21;;;;;;;10.70;7.70;;;15.20;46.10;;;;;;5056173;28;47418;-67
2023/08/12 04:20:50;;;;;;;10.90;7.60;;;15.30;46.10;;;;;;5054837;28;46553;-67
2023/08/12 04:23:16;;;;;;;13.70;7.47;;;15.40;46.10;;;;;;5055630;28;46324;-67
2023/08/12 04:25:46;;;;;;;10.20;7.57;;;15.50;46.30;;;;;;5058038;28;46853;-69
2023/08/12 04:28:13;;;;;;;10.97;7.97;;;15.50;46.30;;;;;;5055844;28;46507;-67
2023/08/12 04:30:46;;;;;;;9.87;7.40;;;15.60;46.30;;;;;;5057522;28;46542;-67
2023/08/12 04:33:13;;;;;;;8.27;6.60;;;15.80;46.40;;;;;;5053553;28;47076;-68
2023/08/12 04:35:39;;;;;;;11.73;6.17;;;15.80;46.20;;;;;;5051937;28;46414;-67
2023/08/12 04:38:05;;;;;;;7.70;5.90;;;15.80;46.40;;;;;;5051996;28;46683;-66
2023/08/12 04:40:31;;;;;;;11.70;4.67;;;15.80;46.60;;;;;;5053572;28;46178;-67
2023/08/12 04:42:58;;;;;;;10.73;5.83;;;15.70;46.80;;;;;;5051214;28;46230;-67
2023/08/12 04:45:24;;;;;;;9.10;5.40;;;15.80;46.60;;;;;;5057396;28;46741;-68
2023/08/12 04:47:49;;;;;;;5.90;4.50;;;15.80;46.40;;;;;;5059474;28;48097;-68
2023/08/12 04:50:16;;;;;;;6.10;4.40;;;15.90;46.00;;;;;;5054711;28;46520;-68
2023/08/12 04:52:41;;;;;;;12.57;5.20;;;16.10;45.60;;;;;;5055978;28;46523;-69
2023/08/12 04:55:07;;;;;;;9.00;5.03;;;16.20;45.00;;;;;;5053952;28;46486;-68
2023/08/12 04:57:33;;;;;;;8.60;5.87;;;16.40;44.30;;;;;;5055754;28;47602;-67
2023/08/12 04:59:59;;;;;;;7.67;5.73;;;16.60;44.50;;;;;;5052236;28;46506;-69
2023/08/12 05:02:24;;;;;;;10.10;5.00;;;16.80;43.80;;;;;;5051888;28;45819;-69
2023/08/12 05:04:51;;;;;;;11.63;5.50;;;17.00;43.00;;;;;;5051901;28;46036;-68
2023/08/12 05:07:17;;;;;;;6.10;4.50;;;17.90;41.90;;;;;;5052272;28;47848;-68
2023/08/12 05:09:44;;;;;;;8.13;4.90;;;18.80;41.00;;;;;;5053757;28;46430;-69
2023/08/12 05:12:10;;;;;;;8.60;5.27;;;19.70;39.40;;;;;;5054979;28;46302;-67
2023/08/12 05:14:36;;;;;;;8.43;4.23;;;20.90;36.30;;;;;;5053844;28;46459;-67
2023/08/12 05:17:02;;;;;;;6.30;3.83;;;21.90;33.60;;;;;;5055118;28;46686;-69
2023/08/12 05:19:27;;;;;;;7.33;4.20;;;22.70;30.90;;;;;;5054883;28;46566;-68
2023/08/12 05:21:53;;;;;;;8.20;4.30;;;23.60;28.80;;;;;;5055631;28;46433;-68
2023/08/12 05:24:19;;;;;;;11.33;3.93;;;24.30;27.00;;;;;;5054473;28;46414;-67
2023/08/12 05:26:44;;;;;;;7.53;4.47;;;25.10;26.00;;;;;;5056839;28;46706;-67
2023/08/12 05:29:10;;;;;;;6.20;4.43;;;25.10;24.70;;;;;;5054239;28;46406;-68
2023/08/12 05:31:35;;;;;;;5.77;4.67;;;24.70;24.80;;;;;;5055020;28;46488;-67
2023/08/12 05:34:01;;;;;;;5.83;3.87;;;24.70;24.40;;;;;;5055413;28;46590;-66
2023/08/12 05:36:27;;;;;;;6.23;4.20;;;25.30;23.00;;;;;;5057154;28;46242;-69
2023/08/12 05:38:52;;;;;;;8.10;4.30;;;25.50;22.10;;;;;;5052657;28;46426;-68
2023/08/12 05:41:18;;;;;;;11.40;4.57;;;25.00;22.60;;;;;;5053010;28;46454;-67
2023/08/12 05:43:43;;;;;;;5.93;4.03;;;24.20;23.70;;;;;;5056496;28;46759;-67
2023/08/12 05:46:09;;;;;;;6.40;4.03;;;23.50;24.90;;;;;;5053946;28;46984;-66
2023/08/12 05:48:34;;;;;;;7.43;4.50;;;23.00;24.80;;;;;;5054185;28;46463;-69
2023/08/12 05:51:00;;;;;;;7.20;5.07;;;22.80;24.70;;;;;;5055941;28;46490;-67
2023/08/12 05:53:26;;;;;;;8.33;4.43;;;22.50;25.40;;;;;;5051653;28;46256;-66
2023/08/12 05:55:51;;;;;;;6.10;4.87;;;22.90;24.50;;;;;;5054866;28;46471;-66
2023/08/12 05:58:17;;;;;;;7.37;4.47;;;24.40;22.50;;;;;;5054094;28;46570;-67
2023/08/12 06:00:45;;;;;;;7.83;3.93;;;25.70;19.70;;;;;;5056698;28;45854;-66
2023/08/12 06:03:12;;;;;;;6.73;4.53;;;26.50;17.40;;;;;;5053972;28;46706;-67
2023/08/12 06:05:38;;;;;;;6.73;3.93;;;26.90;15.90;;;;;;5051107;28;46461;-67
2023/08/12 06:08:04;;;;;;;6.23;3.40;;;27.50;14.80;;;;;;5052460;28;46653;-65
2023/08/12 06:10:34;;;;;;;6.37;4.03;;;28.10;12.90;;;;;;5074302;22;48094;-68
2023/08/12 06:13:00;;;;;;;4.97;3.23;;;28.80;11.30;;;;;;5079371;27;46456;-68
2023/08/12 06:15:25;;;;;;;6.70;3.23;;;29.30;9.80;;;;;;5073280;27;46163;-67
2023/08/12 06:17:51;;;;;;;6.40;4.40;;;29.50;9.10;;;;;;5081554;27;46694;-67
2023/08/12 06:20:16;;;;;;;6.50;3.90;;;29.70;8.90;;;;;;5077443;27;46741;-68
2023/08/12 06:22:42;;;;;;;6.97;3.80;;;30.20;7.60;;;;;;5081245;27;46384;-68
2023/08/12 06:25:08;;;;;;;10.07;3.90;;;30.70;6.50;;;;;;5078599;27;47059;-66
2023/08/12 06:27:33;;;;;;;7.37;4.10;;;31.20;5.10;;;;;;5072415;28;46981;-67
2023/08/12 06:29:59;;;;;;;11.13;3.90;;;31.70;4.20;;;;;;5079269;27;46426;-67
2023/08/12 06:32:25;;;;;;;7.00;3.23;;;32.00;3.80;;;;;;5073290;27;46771;-66
2023/08/12 06:34:50;;;;;;;6.60;3.77;;;31.20;6.00;;;;;;5053802;28;47143;-67
2023/08/12 06:37:16;;;;;;;6.20;3.30;;;30.30;7.00;;;;;;5070484;28;46637;-67
2023/08/12 06:39:41;;;;;;;4.93;3.20;;;29.90;8.40;;;;;;5056018;28;46471;-68
2023/08/12 06:42:07;;;;;;;6.43;3.73;;;29.50;8.90;;;;;;5083946;28;46430;-66
2023/08/12 06:44:33;;;;;;;5.90;3.77;;;29.80;7.50;;;;;;5067486;28;46642;-66
2023/08/12 06:46:58;;;;;;;5.90;3.67;;;30.20;6.30;;;;;;5071080;28;46644;-67
2023/08/12 06:49:24;;;;;;;6.43;4.10;;;29.70;7.30;;;;;;5073521;28;46491;-67
2023/08/12 06:51:49;;;;;;;6.23;4.40;;;29.30;8.40;;;;;;5087336;27;46653;-66
2023/08/12 06:54:15;;;;;;;9.33;4.37;;;28.90;9.10;;;;;;5081332;28;46442;-67
2023/08/12 06:56:40;;;;;;;6.97;3.67;;;28.80;9.40;;;;;;5077190;28;46740;-67
2023/08/12 06:59:06;;;;;;;7.17;4.00;;;28.90;9.20;;;;;;5069759;28;46487;-68
2023/08/12 07:01:32;;;;;;;9.70;4.17;;;28.90;9.30;;;;;;5085112;27;46736;-66
2023/08/12 07:03:57;;;;;;;10.57;4.90;;;28.90;9.50;;;;;;5072587;27;47100;-67
2023/08/12 07:06:23;;;;;;;6.93;3.33;;;29.10;9.20;;;;;;5081450;28;46113;-67
2023/08/12 07:08:49;;;;;;;4.70;2.97;;;28.90;9.30;;;;;;5072339;28;46517;-67
2023/08/12 07:11:14;;;;;;;5.70;4.00;;;28.50;9.40;;;;;;5074985;28;45855;-66
2023/08/12 07:13:40;;;;;;;8.00;4.17;;;28.10;9.90;;;;;;5079780;28;46466;-67
2023/08/12 07:16:05;;;;;;;5.50;3.40;;;28.10;10.90;;;;;;5076017;28;46503;-66
2023/08/12 07:18:31;;;;;;;8.00;3.37;;;27.90;11.30;;;;;;5069921;28;46419;-68
2023/08/12 07:20:58;;;;;;;4.90;3.40;;;27.70;11.80;;;;;;5076177;28;46757;-67
2023/08/12 07:23:24;;;;;;;5.17;3.00;;;27.50;12.20;;;;;;5070567;28;47117;-67
2023/08/12 07:25:49;;;;;;;9.13;3.43;;;27.40;12.50;;;;;;5077749;28;46433;-69
2023/08/12 07:28:15;;;;;;;5.77;3.50;;;27.40;12.90;;;;;;5072430;28;46105;-69
2023/08/12 07:30:41;;;;;;;6.73;3.80;;;27.50;13.00;;;;;;5081688;27;46194;-66
2023/08/12 07:33:07;;;;;;;6.50;3.43;;;27.50;13.10;;;;;;5072350;28;47304;-67
2023/08/12 07:35:32;;;;;;;5.33;3.97;;;27.60;13.30;;;;;;5072463;27;46362;-66
2023/08/12 07:37:58;;;;;;;8.00;3.60;;;27.80;13.00;;;;;;5077228;28;46429;-68
2023/08/12 07:40:23;;;;;;;6.40;3.77;;;28.00;12.50;;;;;;5083156;27;46308;-66
2023/08/12 07:42:49;;;;;;;7.03;3.30;;;28.10;12.10;;;;;;5075034;28;46453;-67
2023/08/12 07:45:15;;;;;;;5.93;3.80;;;28.30;12.60;;;;;;5070377;28;46708;-67
2023/08/12 07:47:40;;;;;;;5.57;3.80;;;28.40;11.20;;;;;;5078813;28;46514;-66
2023/08/12 07:50:06;;;;;;;5.33;3.60;;;28.40;11.00;;;;;;5073343;28;46364;-67
2023/08/12 07:52:32;;;;;;;7.63;3.50;;;28.60;10.60;;;;;;5071513;28;47076;-67
2023/08/12 07:54:58;;;;;;;4.80;3.60;;;28.60;10.50;;;;;;5070768;28;46490;-67
2023/08/12 07:57:23;;;;;;;5.97;3.40;;;28.50;10.50;;;;;;5071227;28;46424;-66
2023/08/12 07:59:50;;;;;;;8.30;3.53;;;28.50;10.50;;;;;;5079566;27;46325;-67
2023/08/12 08:02:15;;;;;;;5.80;3.63;;;28.30;10.80;;;;;;5071421;28;46900;-67
2023/08/12 08:04:41;;;;;;;6.80;3.57;;;28.30;10.90;;;;;;5056308;28;47227;-67
2023/08/12 08:07:07;;;;;;;3.80;2.63;;;28.10;10.80;;;;;;5066289;28;46413;-68
2023/08/12 08:09:33;;;;;;;5.87;3.67;;;28.10;10.80;;;;;;5074772;27;46718;-66
2023/08/12 08:12:00;;;;;;;7.07;3.47;;;28.20;10.90;;;;;;5075081;27;47271;-67
2023/08/12 08:14:27;;;;;;;10.27;3.10;;;28.30;10.60;;;;;;5075027;28;46576;-67
2023/08/12 08:16:53;;;;;;;5.70;3.40;;;28.30;10.30;;;;;;5084573;27;46496;-66
2023/08/12 08:19:18;;;;;;;5.70;3.87;;;28.20;10.50;;;;;;5075274;27;46568;-67
2023/08/12 08:21:44;;;;;;;5.13;3.90;;;28.30;10.40;;;;;;5068340;28;47077;-69
2023/08/12 08:24:12;;;;;;;5.00;3.30;;;28.40;10.50;;;;;;5072671;27;46499;-67
2023/08/12 08:26:38;;;;;;;7.80;3.00;;;28.70;9.70;;;;;;5084421;27;46448;-67
2023/08/12 08:29:04;;;;;;;5.00;2.80;;;28.90;8.90;;;;;;5079799;28;46512;-67
2023/08/12 08:31:30;;;;;;;9.87;3.63;;;29.10;8.20;;;;;;5080604;27;46592;-67
2023/08/12 08:33:55;;;;;;;6.50;3.80;;;29.20;8.20;;;;;;5079754;27;46410;-67
2023/08/12 08:36:21;;;;;;;5.60;3.27;;;29.20;8.30;;;;;;5074162;28;46409;-67
2023/08/12 08:38:46;;;;;;;5.20;3.27;;;29.10;8.30;;;;;;5070326;28;46361;-67
2023/08/12 08:41:13;;;;;;;5.97;3.10;;;29.00;8.60;;;;;;5080843;28;47260;-67
2023/08/12 08:43:45;;;;;;;5.00;3.30;;;29.00;8.80;;;;;;5054648;28;46517;-66
2023/08/12 08:46:15;;;;;;;7.63;3.53;;;29.00;8.80;;;;;;5078062;28;46761;-66
2023/08/12 08:48:42;;;;;;;5.50;3.00;;;29.10;8.60;;;;;;5063987;28;45891;-67
2023/08/12 08:51:10;;;;;;;8.60;3.97;;;29.10;8.70;;;;;;5077146;27;46402;-67
2023/08/12 08:53:40;;;;;;;6.43;4.10;;;29.20;8.80;;;;;;5084356;27;46602;-69
2023/08/12 08:56:07;;;;;;;5.23;3.27;;;29.30;8.90;;;;;;5081776;27;45835;-68
2023/08/12 08:58:33;;;;;;;4.77;3.27;;;29.40;8.70;;;;;;5077789;27;46449;-66
2023/08/12 09:00:59;;;;;;;6.10;3.77;;;29.50;8.80;;;;;;5079074;27;46505;-68
2023/08/12 09:03:26;;;;;;;7.23;3.50;;;29.70;8.20;;;;;;5071694;28;46383;-68
2023/08/12 09:05:55;;;;;;;6.63;3.07;;;29.70;7.60;;;;;;5074051;28;46549;-67
2023/08/12 09:08:22;;;;;;;6.73;3.37;;;29.70;7.60;;;;;;5068924;28;46439;-66
2023/08/12 09:10:48;;;;;;;4.90;3.30;;;29.70;7.10;;;;;;5071477;27;46983;-67
2023/08/12 09:13:14;;;;;;;4.70;3.30;;;29.70;7.40;;;;;;5070479;28;46698;-66
2023/08/12 09:15:40;;;;;;;6.97;4.00;;;29.70;7.30;;;;;;5077479;28;46402;-65
2023/08/12 09:18:07;;;;;;;4.93;3.30;;;29.80;7.40;;;;;;5066090;28;46548;-66
2023/08/12 09:20:36;;;;;;;4.27;3.23;;;29.80;7.50;;;;;;5073285;27;46775;-72
2023/08/12 09:23:02;;;;;;;5.53;3.33;;;29.70;7.80;;;;;;5085975;27;46785;-67
2023/08/12 09:25:29;;;;;;;6.07;3.20;;;29.70;7.90;;;;;;5081925;27;46406;-68
2023/08/12 09:28:04;;;;;;;5.87;3.00;;;29.70;7.70;;;;;;5077054;27;46524;-67
2023/08/12 09:30:33;;;;;;;8.10;3.10;;;30.00;7.00;;;;;;5078713;27;46498;-70
2023/08/12 09:33:02;;;;;;;6.20;3.10;;;30.10;7.20;;;;;;5072510;27;46380;-67
2023/08/12 09:35:46;;;;;;;5.83;3.13;;;30.40;7.20;;;;;;5076093;27;46369;-67
2023/08/12 09:38:13;;;;;;;8.60;2.97;;;30.90;6.60;;;;;;5089126;27;46331;-68
2023/08/12 09:40:39;;;;;;;6.37;3.03;;;30.80;6.60;;;;;;5084686;27;46393;-67
2023/08/12 09:43:05;;;;;;;5.90;3.10;;;30.70;6.50;;;;;;5067952;27;46693;-66
2023/08/12 09:45:32;;;;;;;5.57;2.97;;;30.60;6.40;;;;;;5075838;27;46560;-65
2023/08/12 09:47:58;;;;;;;5.63;3.03;;;30.50;6.40;;;;;;5082961;27;46506;-67
2023/08/12 09:50:28;;;;;;;4.63;3.20;;;30.40;6.30;;;;;;5084777;27;47300;-68
2023/08/12 09:52:55;;;;;;;6.90;3.80;;;30.20;6.30;;;;;;5072385;27;46337;-67
2023/08/12 09:55:24;;;;;;;4.63;3.03;;;29.90;7.00;;;;;;5071909;27;46500;-67
2023/08/12 09:57:54;;;;;;;4.47;3.00;;;29.90;7.20;;;;;;5071509;27;46595;-68
2023/08/12 10:00:25;;;;;;;11.97;3.53;;;29.90;7.00;;;;;;5073383;27;46877;-68
2023/08/12 10:02:52;;;;;;;4.90;3.57;;;30.20;6.70;;;;;;5073058;27;46514;-67
2023/08/12 10:05:34;;;;;;;5.40;3.10;;;30.40;6.30;;;;;;5072613;27;46409;-68
2023/08/12 10:08:03;;;;;;;6.20;3.10;;;30.50;6.50;;;;;;5073305;28;46359;-68
2023/08/12 10:10:30;;;;;;;4.00;2.60;;;30.60;6.40;;;;;;5078243;27;46730;-67
2023/08/12 10:12:56;;;;;;;5.77;2.90;;;30.50;5.80;;;;;;5071945;28;46441;-67
2023/08/12 10:15:22;;;;;;;9.10;2.90;;;30.50;6.40;;;;;;5076291;27;46411;-67
2023/08/12 10:17:50;;;;;;;4.17;2.70;;;30.40;6.40;;;;;;5080434;28;45920;-68
2023/08/12 10:20:24;;;;;;;4.63;2.97;;;30.20;6.30;;;;;;5069771;28;46364;-67
2023/08/12 10:22:51;;;;;;;5.60;2.90;;;29.90;6.10;;;;;;5071378;28;46706;-68
2023/08/12 10:25:21;;;;;;;7.13;3.07;;;29.90;6.10;;;;;;5075869;28;46494;-67
2023/08/12 10:27:48;;;;;;;5.57;3.17;;;30.00;6.10;;;;;;5069490;28;46479;-68
2023/08/12 10:30:13;;;;;;;4.40;2.83;;;30.10;6.20;;;;;;5073222;28;47063;-68
2023/08/12 10:32:39;;;;;;;4.67;2.80;;;29.90;6.10;;;;;;5071451;28;46390;-68
2023/08/12 10:35:06;;;;;;;6.20;2.77;;;30.00;6.20;;;;;;5077741;28;46375;-68
2023/08/12 10:37:33;;;;;;;5.20;3.23;;;30.10;6.20;;;;;;5073796;28;46336;-67
2023/08/12 10:40:03;;;;;;;4.17;2.97;;;29.90;6.10;;;;;;5072166;28;46649;-67
2023/08/12 10:42:48;;;;;;;4.10;2.63;;;29.80;6.70;;;;;;5071625;28;46425;-67
2023/08/12 10:45:16;;;;;;;6.63;2.50;;;29.80;6.50;;;;;;5070310;28;46415;-67
2023/08/12 10:47:48;;;;;;;12.77;2.50;;;29.80;6.40;;;;;;5060258;28;46388;-68
2023/08/12 10:50:18;;;;;;;4.30;2.50;;;29.70;6.00;;;;;;5072724;28;47122;-67
2023/08/12 10:52:45;;;;;;;5.40;2.60;;;29.60;5.90;;;;;;5075082;28;46479;-67
2023/08/12 10:55:25;;;;;;;4.00;2.60;;;29.80;6.00;;;;;;5079568;27;46387;-67
2023/08/12 10:57:53;;;;;;;3.93;2.40;;;30.00;6.10;;;;;;5068677;28;46343;-67
2023/08/12 11:00:22;;;;;;;4.60;2.73;;;29.90;5.40;;;;;;5070283;28;47000;-67
2023/08/12 11:02:52;;;;;;;8.43;2.53;;;29.90;6.00;;;;;;5070531;28;46437;-67
2023/08/12 11:05:19;;;;;;;4.90;2.70;;;30.00;5.00;;;;;;5077312;27;46312;-66
2023/08/12 11:07:49;;;;;;;6.27;3.27;;;30.00;4.90;;;;;;5071381;27;46627;-68
2023/08/12 11:10:15;;;;;;;4.40;2.90;;;30.20;4.80;;;;;;5072710;28;48020;-67
2023/08/12 11:13:02;;;;;;;4.80;3.07;;;30.20;4.60;;;;;;5075909;27;46408;-67
2023/08/12 11:15:37;;;;;;;3.93;2.43;;;30.30;4.30;;;;;;5073550;28;46582;-67
2023/08/12 11:18:10;;;;;;;4.20;2.50;;;30.50;3.80;;;;;;5076309;27;46456;-66
2023/08/12 11:20:37;;;;;;;4.50;2.87;;;30.70;3.40;;;;;;5078080;28;46323;-68
2023/08/12 11:23:03;;;;;;;4.20;2.60;;;30.80;3.70;;;;;;5078195;27;46659;-69
2023/08/12 11:25:30;;;;;;;5.73;2.83;;;31.00;3.30;;;;;;5071442;27;46419;-68
2023/08/12 11:27:56;;;;;;;5.23;3.10;;;30.90;3.30;;;;;;5077516;27;46491;-68
2023/08/12 11:30:22;;;;;;;6.37;3.27;;;31.00;3.40;;;;;;5078318;27;46323;-68
2023/08/12 11:32:53;;;;;;;5.73;3.00;;;30.80;3.60;;;;;;5071765;27;46413;-68
2023/08/12 11:35:22;;;;;;;4.60;2.57;;;30.80;3.80;;;;;;5079685;28;46359;-68
2023/08/12 11:37:49;;;;;;;4.57;2.90;;;30.90;3.90;;;;;;5075090;28;46480;-67
2023/08/12 11:40:16;;;;;;;6.20;3.37;;;31.00;3.80;;;;;;5074758;27;47172;-68
2023/08/12 11:42:47;;;;;;;6.50;4.30;;;31.30;3.20;;;;;;5072650;27;46455;-68
2023/08/12 11:45:15;;;;;;;7.07;4.20;;;31.40;2.60;;;;;;5068637;28;46375;-68
2023/08/12 11:47:41;;;;;;;5.70;3.07;;;31.20;2.00;;;;;;5071242;27;46393;-68
2023/08/12 11:50:09;;;;;;;4.80;3.50;;;30.90;1.90;;;;;;5069916;28;46720;-68
2023/08/12 11:52:36;;;;;;;7.20;2.93;;;30.80;2.20;;;;;;5060464;28;46377;-68
2023/08/12 11:55:02;;;;;;;8.80;3.53;;;30.60;2.60;;;;;;5082707;28;46368;-69
2023/08/12 11:57:28;;;;;;;6.33;3.63;;;30.60;3.00;;;;;;5069219;28;46712;-68
2023/08/12 12:00:04;;;;;;;5.93;3.23;;;30.40;3.60;;;;;;5066669;28;46422;-66
2023/08/12 12:02:30;;;;;;;10.80;3.10;;;30.50;3.90;;;;;;5083565;28;46433;-67
2023/08/12 12:04:55;;;;;;;7.47;3.30;;;30.50;3.80;;;;;;5095975;27;46479;-68
2023/08/12 12:07:23;;;;;;;11.23;3.00;;;30.50;4.20;;;;;;5104785;27;46483;-67
2023/08/12 12:09:53;;;;;;;9.30;2.90;;;30.40;4.40;;;;;;5104895;27;46318;-67
2023/08/12 12:12:25;;;;;;;7.23;3.17;;;30.20;4.90;;;;;;5097092;27;46406;-68
2023/08/12 12:14:56;;;;;;;11.60;3.50;;;30.00;5.10;;;;;;5084254;28;46422;-67
2023/08/12 12:17:23;;;;;;;9.50;3.70;;;29.80;5.70;;;;;;5084111;28;46490;-68
2023/08/12 12:19:56;;;;;;;4.80;3.00;;;29.90;5.90;;;;;;5073021;28;46391;-67
2023/08/12 12:22:29;;;;;;;5.63;3.37;;;30.00;6.10;;;;;;5063133;28;46696;-68
2023/08/12 12:24:59;;;;;;;6.00;3.13;;;30.20;5.40;;;;;;5063466;28;46511;-68
2023/08/12 12:27:25;;;;;;;5.37;3.00;;;30.60;4.80;;;;;;5063874;28;46445;-69
2023/08/12 12:29:50;;;;;;;4.90;2.93;;;31.20;3.60;;;;;;5063629;28;46919;-68
2023/08/12 12:32:20;;;;;;;8.47;2.70;;;31.60;2.80;;;;;;5063810;28;46422;-68
2023/08/12 12:34:46;;;;;;;6.47;2.93;;;31.80;2.10;;;;;;5063554;28;46297;-68
2023/08/12 12:37:13;;;;;;;6.80;2.60;;;31.60;2.00;;;;;;5063786;28;46663;-68
2023/08/12 12:39:39;;;;;;;6.30;3.23;;;31.40;2.00;;;;;;5064745;28;46649;-68
2023/08/12 12:42:05;;;;;;;9.80;3.37;;;31.40;2.40;;;;;;5082839;27;46464;-72
2023/08/12 12:44:31;;;;;;;10.63;2.90;;;31.40;2.80;;;;;;5083388;28;46629;-68
2023/08/12 12:46:56;;;;;;;4.57;2.97;;;31.30;3.30;;;;;;5084057;28;46453;-68